LEMD/MAD METAR and TAF weather

Enter ICAO airport designator
Station Type Date Time Source
LEMD METAR 2022/12/10 02:00 UTC NOAA

LEMD 100200Z 00000KT 8000 SCT007 BKN011 08/08 Q1004 NOSIG


Station Type Date Time Source
LEMD Decoded METAR 2022/12/10 02:00 UTC NOAA

Madrid / Barajas, Spain (LEMD) 40-27N 003-33W 582M
Dec 09, 2022 - 09:00 PM EST / 2022.12.10 0200 UTC
Wind: Calm:0
Visibility: 4 mile(s):0
Sky conditions: mostly cloudy
Temperature: 46 F (8 C)
Dew Point: 46 F (8 C)
Relative Humidity: 100%
Pressure (altimeter): 29.65 in. Hg (1004 hPa)
ob: LEMD 100200Z 00000KT 8000 SCT007 BKN011 08/08 Q1004 NOSIG
cycle: 2

Station Type Date Time Source
LEMD TAF 2022/12/09 18:28 UTC NOAA

TAF LEMD 091700Z 0918/1024 26010KT 9999 SCT015 BKN030 TX13/1015Z TN06/1006Z
TEMPO 0918/1004 2500 RA BR BKN005 OVC010 PROB30
TEMPO 0918/1004 2500 +RA BR BKN005 OVC010 PROB40
TEMPO 0920/1004 28010KT PROB40 1004/1009 35005KT
TEMPO 1009/1012 16010KT
TEMPO 1012/1022 24010KT

Example: see airport list